createdAt,value
2019-01-21T00:01:26.774Z,161.3
2019-01-21T00:11:26.998Z,165.9
2019-01-21T00:21:26.693Z,169.7
2019-01-21T00:31:27.163Z,170.7
2019-01-21T00:41:27.542Z,187.7
2019-01-21T00:51:27.551Z,181.8
2019-01-21T01:01:27.150Z,184.6
2019-01-21T01:11:28.086Z,199.1
2019-01-21T01:21:26.870Z,178.4
2019-01-21T01:31:26.966Z,176.7
2019-01-21T01:41:27.503Z,185.1
2019-01-21T01:51:27.938Z,198.7
2019-01-21T02:01:29.298Z,174.7
2019-01-21T02:11:28.301Z,183.0
2019-01-21T02:21:26.468Z,177.1
2019-01-21T02:31:27.369Z,175.0
2019-01-21T02:41:27.152Z,156.5
2019-01-21T02:51:26.787Z,182.5
2019-01-21T03:01:26.496Z,143.4
2019-01-21T03:11:28.457Z,170.0
2019-01-21T03:21:27.530Z,127.6
2019-01-21T03:31:32.045Z,99.3
2019-01-21T03:41:26.685Z,115.9
2019-01-21T03:51:27.609Z,109.7
2019-01-21T04:01:28.071Z,109.4
2019-01-21T04:11:26.975Z,104.0
2019-01-21T04:21:27.252Z,96.5
2019-01-21T04:31:27.513Z,92.4
2019-01-21T04:41:27.999Z,114.7
2019-01-21T04:51:28.433Z,119.7
2019-01-21T05:01:28.778Z,116.5
2019-01-21T05:11:26.817Z,114.1
2019-01-21T05:21:26.892Z,113.5
2019-01-21T05:31:26.653Z,110.0
2019-01-21T05:41:27.142Z,107.5
2019-01-21T05:51:27.759Z,120.9
2019-01-21T06:01:26.425Z,120.4
2019-01-21T06:11:27.339Z,104.0
2019-01-21T06:21:27.760Z,105.1
2019-01-21T06:31:27.186Z,120.1
2019-01-21T06:41:26.710Z,149.0
2019-01-21T06:51:27.204Z,189.0
2019-01-21T07:01:27.333Z,209.3
2019-01-21T07:11:27.171Z,201.2
2019-01-21T07:21:28.325Z,180.4
2019-01-21T07:31:27.230Z,235.4
2019-01-21T07:41:26.882Z,198.3
2019-01-21T07:51:27.541Z,152.7
2019-01-21T08:01:26.318Z,134.2
2019-01-21T08:11:26.940Z,156.3
2019-01-21T08:21:28.985Z,139.1
2019-01-21T08:31:26.589Z,101.9
2019-01-21T08:41:31.989Z,112.0
2019-01-21T08:51:27.820Z,116.9
2019-01-21T09:01:26.426Z,132.9
2019-01-21T09:11:27.056Z,120.0
2019-01-21T09:21:26.964Z,116.9
2019-01-21T09:31:27.616Z,89.3
2019-01-21T09:41:27.535Z,98.6
2019-01-21T09:51:27.748Z,114.6
2019-01-21T10:01:27.984Z,69.4
2019-01-21T10:11:27.361Z,101.7
2019-01-21T10:21:27.143Z,88.2
2019-01-21T10:31:27.312Z,95.1
2019-01-21T10:41:27.499Z,86.4
2019-01-21T10:51:27.568Z,98.4
2019-01-21T11:01:31.403Z,109.9
2019-01-21T11:11:27.303Z,114.1
2019-01-21T11:21:27.216Z,138.1
2019-01-21T11:31:27.503Z,122.8
2019-01-21T11:41:27.687Z,152.8
2019-01-21T11:51:26.469Z,127.0
2019-01-21T12:01:27.524Z,115.8
2019-01-21T12:11:28.327Z,108.7
2019-01-21T12:21:29.654Z,125.1
2019-01-21T12:31:27.464Z,134.1
2019-01-21T12:41:27.378Z,149.6
2019-01-21T12:51:27.566Z,142.7
2019-01-21T13:01:29.158Z,172.3
2019-01-21T13:11:27.142Z,150.6
2019-01-21T13:21:34.573Z,169.1
2019-01-21T13:31:28.491Z,170.9
2019-01-21T13:41:27.348Z,157.6
2019-01-21T13:51:27.000Z,192.3
2019-01-21T14:01:27.540Z,190.8
2019-01-21T14:11:28.708Z,188.6
2019-01-21T14:21:26.565Z,186.1
2019-01-21T14:31:27.562Z,194.1
2019-01-21T14:41:27.563Z,191.2
2019-01-21T14:51:27.546Z,187.4
2019-01-21T15:01:28.145Z,191.3
2019-01-21T15:11:28.131Z,207.3
2019-01-21T15:21:27.828Z,218.8
2019-01-21T15:31:26.685Z,207.0
2019-01-21T15:41:26.678Z,209.1
2019-01-21T15:51:29.707Z,238.9
2019-01-21T16:01:26.873Z,218.2
2019-01-21T16:11:26.767Z,209.0
2019-01-21T16:21:26.540Z,246.4
2019-01-21T16:31:27.673Z,209.1
2019-01-21T16:41:26.830Z,236.6
2019-01-21T16:51:28.682Z,271.0
2019-01-21T17:01:27.385Z,234.7
2019-01-21T17:11:32.296Z,253.9
2019-01-21T17:21:27.891Z,243.5
2019-01-21T17:31:26.567Z,236.3
2019-01-21T17:41:28.029Z,234.2
2019-01-21T17:51:33.405Z,206.5
2019-01-21T18:01:27.295Z,195.0
2019-01-21T18:11:28.424Z,182.8
2019-01-21T18:21:26.462Z,194.0
2019-01-21T18:31:27.106Z,186.1
2019-01-21T18:41:26.830Z,181.5
2019-01-21T18:51:26.933Z,177.9
2019-01-21T19:01:26.963Z,184.5
2019-01-21T19:11:26.765Z,200.6
2019-01-21T19:21:26.642Z,193.3
2019-01-21T19:31:27.532Z,195.0
2019-01-21T19:41:27.280Z,190.4
2019-01-21T19:51:28.467Z,216.1
2019-01-21T20:01:27.411Z,182.1
2019-01-21T20:11:27.198Z,208.9
2019-01-21T20:21:26.774Z,189.6
2019-01-21T20:31:28.298Z,201.3
2019-01-21T20:41:27.242Z,206.3
2019-01-21T20:51:27.750Z,203.3
2019-01-21T21:01:26.507Z,232.1
2019-01-21T21:11:27.244Z,191.0
2019-01-21T21:21:28.433Z,206.3
2019-01-21T21:31:27.939Z,207.2
2019-01-21T21:41:27.892Z,195.6
2019-01-21T21:51:27.210Z,188.0
2019-01-21T22:01:27.883Z,208.8
2019-01-21T22:11:27.623Z,180.6
2019-01-21T22:21:27.100Z,195.3
2019-01-21T22:31:26.639Z,185.0
2019-01-21T22:41:26.618Z,162.7
2019-01-21T22:51:26.418Z,169.7
2019-01-21T23:01:27.765Z,158.5
2019-01-21T23:11:28.030Z,171.8
2019-01-21T23:21:27.765Z,181.0
2019-01-21T23:31:28.855Z,172.2
2019-01-21T23:41:28.796Z,179.0
2019-01-21T23:51:27.576Z,177.5
